Time;durP1;ratioP1;P1;durP2;ratioP2;P2;SDS_P1;SDS_P2;PMS_P1;PMS_P2;Temp;Humidity;BMP_temperature;BMP_pressure;BME280_temperature;BME280_humidity;BME280_pressure;Samples;Min_cycle;Max_cycle;Signal;HPM_P1;HPM_P2
2022/05/20 00:02:29;;;;;;;1.25;1.13;;;13.80;99.90;;;;;;5280699;28;20020;-71
2022/05/20 00:05:02;;;;;;;1.05;1.00;;;13.70;99.90;;;;;;5269799;28;20046;-72
2022/05/20 00:07:35;;;;;;;1.53;1.37;;;13.70;99.90;;;;;;5263366;28;20014;-71
2022/05/20 00:10:09;;;;;;;1.65;1.17;;;13.60;99.90;;;;;;5279164;28;20035;-72
2022/05/20 00:12:40;;;;;;;2.30;1.33;;;13.60;99.90;;;;;;5280982;28;20020;-72
2022/05/20 00:15:19;;;;;;;1.55;1.45;;;13.70;99.90;;;;;;5256268;28;20026;-71
2022/05/20 00:17:55;;;;;;;4.85;1.67;;;13.70;99.90;;;;;;5262177;28;20018;-72
2022/05/20 00:20:29;;;;;;;2.60;1.40;;;13.70;99.90;;;;;;5263324;28;20359;-71
2022/05/20 00:23:03;;;;;;;1.50;1.40;;;13.70;99.90;;;;;;5270115;28;20468;-71
2022/05/20 00:25:56;;;;;;;1.70;1.60;;;13.70;99.90;;;;;;5259904;28;20000;-72
2022/05/20 00:28:29;;;;;;;5.20;1.00;;;13.70;99.90;;;;;;5258927;28;20230;-71
2022/05/20 00:31:06;;;;;;;1.30;1.20;;;13.80;99.90;;;;;;5278988;28;20019;-71
2022/05/20 00:33:38;;;;;;;2.97;1.50;;;13.80;99.90;;;;;;5278723;28;20028;-71
2022/05/20 00:36:09;;;;;;;1.30;1.20;;;13.80;99.90;;;;;;5271495;28;20037;-71
2022/05/20 00:38:43;;;;;;;1.98;1.30;;;13.80;99.90;;;;;;5280054;28;20028;-71
2022/05/20 00:41:19;;;;;;;1.83;1.50;;;13.80;99.90;;;;;;5279989;28;20029;-71
2022/05/20 00:43:51;;;;;;;2.17;1.20;;;13.80;99.90;;;;;;5267739;28;20236;-71
2022/05/20 00:46:27;;;;;;;3.05;1.65;;;13.80;99.90;;;;;;5282400;28;20019;-71
2022/05/20 00:49:09;;;;;;;4.32;1.92;;;13.80;99.90;;;;;;5281967;28;20455;-71
2022/05/20 00:51:52;;;;;;;1.50;1.40;;;13.90;99.90;;;;;;5280349;28;20205;-71
2022/05/20 00:54:30;;;;;;;3.75;2.28;;;13.90;99.90;;;;;;5260136;28;20487;-71
2022/05/20 00:57:17;;;;;;;1.95;1.35;;;13.90;99.90;;;;;;5262047;28;20036;-72
2022/05/20 00:59:56;;;;;;;1.52;1.42;;;13.90;99.90;;;;;;5269867;28;20015;-71
2022/05/20 01:02:31;;;;;;;1.50;1.40;;;13.80;99.90;;;;;;5281925;27;20349;-71
2022/05/20 01:05:16;;;;;;;1.48;1.38;;;13.80;99.90;;;;;;5272362;28;20043;-71
2022/05/20 01:07:51;;;;;;;2.35;1.50;;;13.70;99.90;;;;;;5269089;28;20673;-71
2022/05/20 01:10:27;;;;;;;2.80;1.23;;;13.70;99.90;;;;;;5280752;27;20316;-71
2022/05/20 01:13:07;;;;;;;1.75;1.65;;;13.60;99.90;;;;;;5266144;28;20012;-71
2022/05/20 01:15:39;;;;;;;1.50;1.40;;;13.60;99.90;;;;;;5264999;28;20015;-71
2022/05/20 01:18:12;;;;;;;1.90;1.58;;;13.50;99.90;;;;;;5283561;28;20028;-71
2022/05/20 01:20:49;;;;;;;1.65;1.30;;;13.50;99.90;;;;;;5283183;28;20079;-71
2022/05/20 01:23:27;;;;;;;2.10;1.42;;;13.40;99.90;;;;;;5279112;28;20341;-71
2022/05/20 01:25:58;;;;;;;2.38;1.05;;;13.40;99.90;;;;;;5261010;28;20035;-71
2022/05/20 01:28:33;;;;;;;2.53;1.80;;;13.40;99.90;;;;;;5282997;28;20347;-71
2022/05/20 01:31:15;;;;;;;1.20;1.10;;;13.30;99.90;;;;;;5281861;28;20026;-71
2022/05/20 01:33:49;;;;;;;1.55;1.30;;;13.30;99.90;;;;;;5264648;28;20012;-71
2022/05/20 01:36:24;;;;;;;2.03;1.80;;;13.30;99.90;;;;;;5282330;27;20457;-71
2022/05/20 01:38:59;;;;;;;5.28;1.70;;;13.40;99.90;;;;;;5279937;28;20027;-71
2022/05/20 01:41:57;;;;;;;3.60;2.00;;;13.50;99.90;;;;;;5264147;28;20031;-71
2022/05/20 01:44:36;;;;;;;2.05;1.42;;;14.90;99.90;;;;;;5283066;28;20008;-71
2022/05/20 01:47:37;;;;;;;1.55;1.23;;;16.20;99.90;;;;;;5283161;28;20484;-71
2022/05/20 01:50:36;;;;;;;1.67;1.33;;;16.90;99.90;;;;;;5282812;28;20035;-71
2022/05/20 01:53:21;;;;;;;1.55;1.38;;;17.50;99.90;;;;;;5226505;28;20035;-71
2022/05/20 01:55:59;;;;;;;;;;;17.60;99.90;;;;;;5218406;28;20029;-71
2022/05/20 01:58:32;;;;;;;;;;;17.60;99.90;;;;;;5187361;28;19904;-71
2022/05/20 02:01:12;;;;;;;;;;;17.80;99.90;;;;;;5236149;28;20330;-71
2022/05/20 02:03:46;;;;;;;;;;;17.80;99.90;;;;;;5237998;28;20369;-71
2022/05/20 02:06:26;;;;;;;;;;;17.70;99.90;;;;;;5227284;28;20265;-71
2022/05/20 02:09:05;;;;;;;;;;;17.70;99.90;;;;;;5245236;28;20273;-71
2022/05/20 02:11:45;;;;;;;;;;;17.70;99.90;;;;;;5247856;28;19900;-71
2022/05/20 02:14:19;;;;;;;;;;;18.50;99.90;;;;;;5235166;28;19900;-71
2022/05/20 02:16:57;;;;;;;;;;;19.20;99.90;;;;;;5237812;28;20437;-72
2022/05/20 02:19:36;;;;;;;;;;;19.60;99.90;;;;;;5236257;28;19919;-71
2022/05/20 02:22:11;;;;;;;;;;;19.70;99.90;;;;;;5218492;28;19907;-71
2022/05/20 02:24:46;;;;;;;;;;;19.70;99.90;;;;;;5250082;28;19915;-71
2022/05/20 02:27:20;;;;;;;;;;;19.90;99.90;;;;;;5266893;28;19930;-72
2022/05/20 02:30:09;;;;;;;;;;;20.10;99.90;;;;;;5263397;28;19899;-71
2022/05/20 02:32:51;;;;;;;;;;;20.10;99.90;;;;;;5275543;28;19899;-71
2022/05/20 02:35:23;;;;;;;;;;;20.00;99.90;;;;;;5283042;27;19917;-71
2022/05/20 02:38:02;;;;;;;;;;;20.00;99.90;;;;;;5302293;27;19918;-70
2022/05/20 02:40:33;;;;;;;;;;;20.10;99.90;;;;;;5300418;27;19906;-71
2022/05/20 02:43:06;;;;;;;;;;;20.20;99.90;;;;;;5263133;28;19896;-69
2022/05/20 02:45:38;;;;;;;;;;;20.10;99.90;;;;;;5264793;28;19911;-72
2022/05/20 02:48:10;;;;;;;;;;;20.10;99.90;;;;;;5262080;28;19974;-70
2022/05/20 02:50:49;;;;;;;;;;;20.10;99.90;;;;;;5282166;28;19923;-72
2022/05/20 02:53:22;;;;;;;;;;;20.20;99.90;;;;;;5268063;28;19914;-72
2022/05/20 02:55:53;;;;;;;;;;;20.20;99.90;;;;;;5243236;28;19928;-71
2022/05/20 03:04:09;;;;;;;;;;;20.30;99.90;;;;;;5259763;28;19904;-71
2022/05/20 03:06:45;;;;;;;;;;;20.40;99.90;;;;;;5247876;28;20055;-71
2022/05/20 03:09:21;;;;;;;;;;;20.40;99.90;;;;;;5279263;27;19913;-71
2022/05/20 03:11:55;;;;;;;;;;;20.30;99.90;;;;;;5269391;28;19937;-71
2022/05/20 03:14:28;;;;;;;;;;;20.30;99.90;;;;;;5281026;28;19972;-71
2022/05/20 03:16:59;;;;;;;;;;;20.10;99.90;;;;;;5280736;28;19919;-71
2022/05/20 03:19:31;;;;;;;;;;;19.70;99.90;;;;;;5280411;28;19903;-71
2022/05/20 03:22:03;;;;;;;;;;;19.30;99.90;;;;;;5279142;28;19900;-71
2022/05/20 03:24:37;;;;;;;;;;;19.00;99.90;;;;;;5270240;28;19900;-71
2022/05/20 03:27:16;;;;;;;;;;;18.70;99.90;;;;;;5278778;28;19917;-71
2022/05/20 03:29:50;;;;;;;;;;;18.40;99.90;;;;;;5279308;28;19963;-72
2022/05/20 03:32:21;;;;;;;;;;;18.20;99.90;;;;;;5277056;28;19903;-71
2022/05/20 03:34:54;;;;;;;;;;;17.80;99.90;;;;;;5282193;28;19918;-71
2022/05/20 03:37:26;;;;;;;;;;;17.30;99.90;;;;;;5271726;28;19907;-71
2022/05/20 03:39:57;;;;;;;;;;;17.00;99.90;;;;;;5280325;28;19922;-71
2022/05/20 03:42:31;;;;;;;;;;;16.70;99.90;;;;;;5281015;28;19908;-69
2022/05/20 03:45:02;;;;;;;;;;;16.60;99.90;;;;;;5280203;28;19914;-72
2022/05/20 03:47:33;;;;;;;;;;;16.40;99.90;;;;;;5279431;28;19918;-71
2022/05/20 03:50:05;;;;;;;;;;;16.30;99.90;;;;;;5279867;28;19904;-71
2022/05/20 03:52:36;;;;;;;;;;;16.20;99.90;;;;;;5261961;28;20326;-71
2022/05/20 03:55:08;;;;;;;;;;;16.20;99.90;;;;;;5279635;28;20236;-71
2022/05/20 03:57:43;;;;;;;;;;;16.20;99.90;;;;;;5281006;28;19904;-71
2022/05/20 04:00:15;;;;;;;;;;;16.20;99.90;;;;;;5280054;28;19918;-71
2022/05/20 04:02:46;;;;;;;;;;;16.20;99.90;;;;;;5280364;28;20231;-72
2022/05/20 04:05:17;;;;;;;;;;;16.30;99.90;;;;;;5270195;28;19922;-71
2022/05/20 04:07:48;;;;;;;;;;;16.20;99.90;;;;;;5280413;28;19971;-71
2022/05/20 04:10:19;;;;;;;;;;;16.20;99.90;;;;;;5294275;28;19908;-71
2022/05/20 04:12:52;;;;;;;;;;;16.20;99.90;;;;;;5280324;28;19902;-71
2022/05/20 04:15:26;;;;;;;;;;;16.30;99.90;;;;;;5262672;28;19900;-72
2022/05/20 04:18:00;;;;;;;;;;;16.20;99.90;;;;;;5275872;28;19945;-71
2022/05/20 04:20:31;;;;;;;;;;;16.20;99.90;;;;;;5262619;28;19915;-71
2022/05/20 04:23:02;;;;;;;;;;;16.20;99.90;;;;;;5268990;28;19904;-71
2022/05/20 04:25:33;;;;;;;;;;;16.10;99.90;;;;;;5279905;28;20104;-71
2022/05/20 04:28:04;;;;;;;;;;;16.00;99.90;;;;;;5281756;28;19910;-71
2022/05/20 04:30:35;;;;;;;;;;;16.20;99.90;;;;;;5286281;28;19899;-71
2022/05/20 04:33:08;;;;;;;;;;;16.40;99.90;;;;;;5268695;28;19899;-72
2022/05/20 04:35:40;;;;;;;;;;;16.50;99.90;;;;;;5290702;27;19911;-71
2022/05/20 04:38:13;;;;;;;;;;;16.60;99.90;;;;;;5306152;27;20337;-71
2022/05/20 04:46:56;;;;;;;;;;;16.60;99.90;;;;;;5266395;28;19900;-71
2022/05/20 04:49:20;;;;;;;;;;;16.70;99.90;;;;;;5268471;28;19927;-72
2022/05/20 04:51:51;;;;;;;;;;;16.70;99.90;;;;;;5283520;28;19914;-72
2022/05/20 04:57:18;;;;;;;;;;;17.20;99.90;;;;;;5283417;28;20209;-71
2022/05/20 04:59:51;;;;;;;;;;;17.70;99.90;;;;;;5283705;28;19900;-71
2022/05/20 05:02:24;;;;;;;;;;;18.10;99.90;;;;;;5283355;28;19906;-72
2022/05/20 05:04:57;;;;;;;;;;;18.30;99.90;;;;;;5272181;28;19920;-71
2022/05/20 05:07:31;;;;;;;;;;;18.40;99.90;;;;;;5271802;28;19944;-71
2022/05/20 05:10:04;;;;;;;;;;;18.60;99.90;;;;;;5296515;27;19904;-71
2022/05/20 05:12:35;;;;;;;;;;;18.80;99.90;;;;;;5283465;27;19910;-73
2022/05/20 05:15:10;;;;;;;;;;;18.80;99.90;;;;;;5282565;28;19904;-72
2022/05/20 05:20:34;;;;;;;;;;;18.70;99.90;;;;;;5282437;28;19904;-71
2022/05/20 05:23:07;;;;;;;;;;;18.90;99.90;;;;;;5279557;28;19896;-71
2022/05/20 05:25:39;;;;;;;;;;;19.00;99.90;;;;;;5261655;28;19900;-71
2022/05/20 05:28:10;;;;;;;;;;;19.10;99.90;;;;;;5273029;28;19910;-72
2022/05/20 05:30:44;;;;;;;;;;;19.10;99.90;;;;;;5265338;28;19900;-71
2022/05/20 05:33:18;;;;;;;;;;;19.40;99.90;;;;;;5283641;28;20090;-71
2022/05/20 05:35:52;;;;;;;;;;;19.70;99.90;;;;;;5281902;28;19904;-72
2022/05/20 05:38:23;;;;;;;;;;;20.00;99.90;;;;;;5249109;28;19918;-72
2022/05/20 05:40:56;;;;;;;;;;;20.50;99.90;;;;;;5282864;28;20284;-72
2022/05/20 05:43:27;;;;;;;;;;;20.90;99.90;;;;;;5283046;28;19899;-72
2022/05/20 05:45:59;;;;;;;;;;;21.30;99.90;;;;;;5264837;28;19908;-72
2022/05/20 05:48:30;;;;;;;;;;;21.50;99.90;;;;;;5282308;28;20334;-72
2022/05/20 05:51:02;;;;;;;;;;;21.70;99.90;;;;;;5281492;28;19904;-72
2022/05/20 05:53:33;;;;;;;;;;;22.10;99.90;;;;;;5281589;28;19918;-72
2022/05/20 05:56:09;;;;;;;;;;;22.30;99.90;;;;;;5280999;28;19904;-72
2022/05/20 05:58:40;;;;;;;;;;;22.30;99.90;;;;;;5246465;28;19904;-72
2022/05/20 06:01:12;;;;;;;;;;;22.80;99.90;;;;;;5281508;28;19916;-72
2022/05/20 06:03:43;;;;;;;;;;;23.10;99.90;;;;;;5263675;28;19907;-72
2022/05/20 06:06:14;;;;;;;;;;;23.60;99.90;;;;;;5252239;28;19915;-71
2022/05/20 06:08:45;;;;;;;;;;;24.00;99.90;;;;;;5282195;27;19904;-71
2022/05/20 06:11:19;;;;;;;;;;;24.20;99.90;;;;;;5271450;28;19908;-71
2022/05/20 06:13:50;;;;;;;;;;;23.80;99.90;;;;;;5275830;28;19918;-71
2022/05/20 06:16:26;;;;;;;;;;;23.70;99.90;;;;;;5270857;28;19900;-71
2022/05/20 06:18:58;;;;;;;;;;;24.20;99.90;;;;;;5269059;28;20517;-71
2022/05/20 06:21:29;;;;;;;;;;;24.90;99.90;;;;;;5256740;28;20186;-71
2022/05/20 06:24:01;;;;;;;;;;;25.40;99.90;;;;;;5270555;28;19941;-73
2022/05/20 06:26:32;;;;;;;;;;;25.90;99.90;;;;;;5278870;28;19906;-74
2022/05/20 06:29:05;;;;;;;;;;;26.20;99.90;;;;;;5253751;28;20266;-74
2022/05/20 06:31:41;;;;;;;;;;;26.00;99.90;;;;;;5277478;28;20319;-71
2022/05/20 06:34:15;;;;;;;;;;;26.60;99.90;;;;;;5280596;28;19918;-73
2022/05/20 06:39:52;;;;;;;;;;;26.80;99.90;;;;;;5273640;28;19915;-73
2022/05/20 06:42:23;;;;;;;;;;;27.00;99.90;;;;;;5278963;28;19914;-73
2022/05/20 06:44:54;;;;;;;;;;;26.70;99.90;;;;;;5279602;28;19908;-74
2022/05/20 06:47:28;;;;;;;;;;;26.60;99.90;;;;;;5277484;28;20169;-74
2022/05/20 06:49:59;;;;;;;;;;;26.60;99.90;;;;;;5259324;28;19921;-73
2022/05/20 06:52:30;;;;;;;;;;;27.10;99.90;;;;;;5273509;28;20316;-72
2022/05/20 06:55:02;;;;;;;;;;;27.20;99.90;;;;;;5258083;28;19900;-73
2022/05/20 06:57:36;;;;;;;;;;;27.30;99.90;;;;;;5264441;28;19902;-72
2022/05/20 07:00:10;;;;;;;;;;;27.10;99.90;;;;;;5278628;28;19912;-72
2022/05/20 07:02:41;;;;;;;;;;;27.50;99.90;;;;;;5279663;28;19908;-73
2022/05/20 07:05:14;;;;;;;;;;;27.80;99.90;;;;;;5268232;28;19923;-73
2022/05/20 07:07:47;;;;;;;;;;;27.80;99.90;;;;;;5265328;28;19912;-73
2022/05/20 07:10:20;;;;;;;;;;;27.70;99.90;;;;;;5276037;27;19918;-73
2022/05/20 07:12:54;;;;;;;;;;;28.10;99.90;;;;;;5277121;28;20544;-72
2022/05/20 07:15:27;;;;;;;;;;;28.30;99.90;;;;;;5261986;28;19900;-73
2022/05/20 07:17:59;;;;;;;;;;;28.10;99.90;;;;;;5273933;28;19908;-73
2022/05/20 07:20:30;;;;;;;;;;;28.90;99.90;;;;;;5261602;28;19922;-73
2022/05/20 07:23:04;;;;;;;;;;;29.10;99.90;;;;;;5252884;28;20284;-73
2022/05/20 07:25:37;;;;;;;;;;;29.20;99.90;;;;;;5252305;27;19900;-72
2022/05/20 07:28:11;;;;;;;;;;;29.40;99.90;;;;;;5265011;28;19899;-73
2022/05/20 07:30:42;;;;;;;;;;;29.80;99.90;;;;;;5279192;28;19926;-72
2022/05/20 07:33:13;;;;;;;;;;;30.00;99.90;;;;;;5279445;28;19900;-73
2022/05/20 07:35:44;;;;;;;;;;;29.50;99.90;;;;;;5280015;28;19903;-73
2022/05/20 07:38:16;;;;;;;;;;;29.60;99.90;;;;;;5268738;28;19986;-73
2022/05/20 07:40:47;;;;;;;;;;;29.30;99.90;;;;;;5266907;28;19906;-72
2022/05/20 07:43:22;;;;;;;;;;;29.30;99.90;;;;;;5271590;28;20261;-73
2022/05/20 07:45:53;;;;;;;;;;;29.20;99.90;;;;;;5280334;28;19900;-72
2022/05/20 07:48:27;;;;;;;;;;;29.50;99.90;;;;;;5281091;28;19910;-73
2022/05/20 07:51:00;;;;;;;;;;;29.50;99.90;;;;;;5280481;28;20407;-72
2022/05/20 07:53:39;;;;;;;;;;;29.90;99.90;;;;;;5280479;28;19938;-73
2022/05/20 07:56:19;;;;;;;;;;;30.50;99.90;;;;;;5280903;28;20440;-72
2022/05/20 07:59:00;;;;;;;;;;;30.40;99.90;;;;;;5279532;28;19910;-73
2022/05/20 08:01:32;;;;;;;;;;;30.30;99.90;;;;;;5261263;28;20013;-72
2022/05/20 08:06:57;;;;;;;;;;;30.50;99.90;;;;;;5239670;28;19939;-72
2022/05/20 08:09:30;;;;;;;;;;;30.80;99.90;;;;;;5285988;27;19925;-73
2022/05/20 08:12:01;;;;;;;;;;;31.30;99.90;;;;;;5285192;28;20342;-73
2022/05/20 08:14:32;;;;;;;;;;;31.60;99.90;;;;;;5282366;27;19903;-72
2022/05/20 08:17:08;;;;;;;;;;;31.70;99.90;;;;;;5283151;28;19908;-73
2022/05/20 08:19:39;;;;;;;;;;;32.00;99.90;;;;;;5284003;28;19910;-73
2022/05/20 08:22:14;;;;;;;;;;;32.20;99.90;;;;;;5282304;28;20243;-73
2022/05/20 08:24:45;;;;;;;;;;;32.40;99.90;;;;;;5283986;28;19914;-74
2022/05/20 08:27:18;;;;;;;;;;;32.10;99.90;;;;;;5284701;28;20109;-72
2022/05/20 08:29:49;;;;;;;;;;;31.70;99.90;;;;;;5283836;28;19896;-73
2022/05/20 08:32:21;;;;;;;;;;;30.80;99.90;;;;;;5279788;28;19900;-73
2022/05/20 08:34:56;;;;;;;;;;;30.20;99.90;;;;;;5283122;28;19900;-72
2022/05/20 08:37:27;;;;;;;;;;;29.70;99.90;;;;;;5284172;27;19900;-72
2022/05/20 08:39:58;;;;;;;;;;;29.50;99.90;;;;;;5282717;28;19908;-72
2022/05/20 08:42:30;;;;;;;;;;;29.40;99.90;;;;;;5277060;28;19907;-71
2022/05/20 08:45:02;;;;;;;;;;;29.40;99.90;;;;;;5281752;28;19915;-72
2022/05/20 08:47:33;;;;;;;;;;;28.90;99.90;;;;;;5280871;28;19899;-72
2022/05/20 08:50:05;;;;;;;;;;;29.40;99.90;;;;;;5282466;28;20453;-73
2022/05/20 08:52:39;;;;;;;;;;;30.00;99.90;;;;;;5280425;28;19904;-74
2022/05/20 08:55:10;;;;;;;;;;;30.70;99.90;;;;;;5281071;28;19916;-73
2022/05/20 08:57:46;;;;;;;;;;;31.20;99.90;;;;;;5282866;28;19911;-72
2022/05/20 09:00:17;;;;;;;;;;;31.40;99.90;;;;;;5283345;28;19900;-72
2022/05/20 09:02:51;;;;;;;;;;;31.60;99.90;;;;;;5264229;28;19908;-72
2022/05/20 09:05:24;;;;;;;;;;;31.60;99.90;;;;;;5271790;28;19911;-73
2022/05/20 09:08:15;;;;;;;;;;;31.80;99.90;;;;;;5264660;28;19911;-72
2022/05/20 09:10:49;;;;;;;;;;;32.30;99.90;;;;;;5260669;28;19900;-72
2022/05/20 09:15:43;;;;;;;;;;;33.20;99.90;;;;;;5285772;28;20273;-72
2022/05/20 09:16:16;;;;;;;;;;;33.30;99.90;;;;;;5281644;28;20496;-73
2022/05/20 09:18:50;;;;;;;;;;;32.40;99.90;;;;;;5262991;28;19904;-74
2022/05/20 09:21:33;;;;;;;;;;;31.50;99.90;;;;;;5266894;28;19908;-72
2022/05/20 09:24:08;;;;;;;;;;;31.50;99.90;;;;;;5247616;28;19900;-72
2022/05/20 09:26:41;;;;;;;;;;;32.00;99.90;;;;;;5261860;28;19908;-72
2022/05/20 09:29:15;;;;;;;;;;;32.60;99.90;;;;;;5268705;28;19903;-72
2022/05/20 09:31:51;;;;;;;;;;;33.00;99.90;;;;;;5247461;28;19912;-72
2022/05/20 09:34:25;;;;;;;;;;;32.50;99.90;;;;;;5280455;28;19941;-72
2022/05/20 09:37:00;;;;;;;;;;;33.40;99.90;;;;;;5280621;27;19911;-73
2022/05/20 09:39:31;;;;;;;;;;;34.30;99.90;;;;;;5262953;28;19916;-73
2022/05/20 09:42:13;;;;;;;;;;;34.90;99.90;;;;;;5280944;28;19945;-73
2022/05/20 09:44:52;;;;;;;;;;;35.10;99.90;;;;;;5282750;28;19914;-73
2022/05/20 09:47:26;;;;;;;;;;;34.70;99.90;;;;;;5281222;28;19910;-72
2022/05/20 09:50:06;;;;;;;;;;;33.40;99.90;;;;;;5282134;28;19914;-72
2022/05/20 09:52:57;;;;;;;;;;;33.50;99.90;;;;;;5281482;27;19915;-72
2022/05/20 09:55:33;;;;;;;;;;;33.50;99.90;;;;;;5261597;28;20357;-72
2022/05/20 09:58:13;;;;;;;;;;;32.20;99.90;;;;;;5260828;28;19907;-73
2022/05/20 10:00:50;;;;;;;;;;;32.80;99.90;;;;;;5260150;28;19908;-72
2022/05/20 10:03:29;;;;;;;;;;;34.30;99.90;;;;;;5260350;28;19904;-72
2022/05/20 10:06:06;;;;;;;;;;;35.20;99.90;;;;;;5234868;28;19916;-74
2022/05/20 10:08:40;;;;;;;;;;;35.90;99.90;;;;;;5281447;27;19908;-72
2022/05/20 10:11:25;;;;;;;;;;;34.90;99.90;;;;;;5261245;28;19904;-72
2022/05/20 10:14:03;;;;;;;;;;;34.30;99.90;;;;;;5242911;28;19915;-72
2022/05/20 10:16:53;;;;;;;;;;;34.00;99.90;;;;;;5260085;28;19907;-74
2022/05/20 10:19:45;;;;;;;;;;;34.40;99.90;;;;;;5260106;28;20508;-74
2022/05/20 10:22:34;;;;;;;;;;;34.50;99.90;;;;;;5227583;28;20125;-73
2022/05/20 10:25:09;;;;;;;;;;;34.90;99.90;;;;;;5260162;28;19900;-74
2022/05/20 10:27:53;;;;;;;;;;;34.20;99.90;;;;;;5275776;28;19908;-73
2022/05/20 10:33:28;;;;;;;;;;;34.60;99.90;;;;;;5281251;28;19907;-73
2022/05/20 10:36:15;;;;;;;;;;;34.10;99.90;;;;;;5273970;28;19904;-73
2022/05/20 10:38:58;;;;;;;;;;;34.40;99.90;;;;;;5279064;28;19907;-73
2022/05/20 10:41:28;;;;;;;;;;;34.00;99.90;;;;;;5280657;28;19896;-73
2022/05/20 10:50:00;;;;;;;;;;;35.70;99.90;;;;;;5266905;28;19908;-72
2022/05/20 10:52:56;;;;;;;;;;;37.10;99.90;;;;;;5280844;28;19920;-72
2022/05/20 10:55:27;;;;;;;;;;;39.70;99.90;;;;;;5216125;28;19904;-73
2022/05/20 10:58:01;;;;;;;;;;;41.80;99.90;;;;;;5216419;28;20055;-73
2022/05/20 11:00:44;;;;;;;;;;;39.80;99.00;;;;;;5216181;28;19915;-74
2022/05/20 11:03:34;;;;;;;;;;;38.60;99.90;;;;;;5216105;28;20374;-74
2022/05/20 11:06:05;;;;;;;;;;;36.70;99.90;;;;;;5174410;28;19925;-72
2022/05/20 11:08:53;;;;;;;;;;;35.30;99.90;;;;;;5210770;28;20533;-74
2022/05/20 11:11:24;;;;;;;;;;;36.70;99.90;;;;;;5206294;28;20240;-73
2022/05/20 11:14:07;;;;;;;;;;;37.20;99.90;;;;;;5215638;28;19940;-73
2022/05/20 11:16:38;;;;;;;;;;;36.90;99.90;;;;;;5215452;28;19905;-73
2022/05/20 11:19:09;;;;;;;;;;;36.50;99.90;;;;;;5215347;28;19943;-74
2022/05/20 11:21:40;;;;;;;;;;;35.70;99.90;;;;;;5214416;28;19912;-73
2022/05/20 11:24:11;;;;;;;;;;;36.10;99.90;;;;;;5210084;28;19919;-73
2022/05/20 11:26:42;;;;;;;;;;;37.00;99.70;;;;;;5214674;28;20410;-74
2022/05/20 11:29:32;;;;;;;;;;;38.60;99.90;;;;;;5215257;28;19901;-74
2022/05/20 11:32:07;;;;;;;;;;;39.30;98.40;;;;;;5253369;27;19910;-74
2022/05/20 11:34:57;;;;;;;;;;;38.00;98.90;;;;;;5272296;27;19899;-74
2022/05/20 11:37:43;;;;;;;;;;;39.60;98.00;;;;;;5279078;28;20326;-74
2022/05/20 11:40:14;;;;;;;;;;;40.80;96.60;;;;;;5280056;28;19904;-74
2022/05/20 11:43:03;;;;;;;;;;;40.60;96.70;;;;;;5279450;28;19915;-74
2022/05/20 11:45:58;;;;;;;;;;;37.50;97.60;;;;;;5276817;28;19904;-73
2022/05/20 11:48:28;;;;;;;;;;;36.10;98.80;;;;;;5260394;28;19900;-73
2022/05/20 11:51:18;;;;;;;;;;;36.30;98.70;;;;;;5260974;28;19907;-74
2022/05/20 11:53:54;;;;;;;;;;;38.80;97.70;;;;;;5261222;28;19908;-74
2022/05/20 11:56:37;;;;;;;;;;;41.40;96.50;;;;;;5280128;28;20231;-74
2022/05/20 11:59:15;;;;;;;;;;;41.80;95.00;;;;;;5261478;28;19911;-73
2022/05/20 12:01:51;;;;;;;;;;;40.70;94.60;;;;;;5279455;28;19936;-73
2022/05/20 12:04:23;;;;;;;;;;;41.00;96.20;;;;;;5265903;28;19904;-73
2022/05/20 12:07:04;;;;;;;;;;;42.20;94.90;;;;;;5254661;28;19907;-74
2022/05/20 12:09:35;;;;;;;;;;;42.90;93.10;;;;;;5290592;28;19912;-73
2022/05/20 12:12:09;;;;;;;;;;;42.20;94.00;;;;;;5277536;28;19896;-74
2022/05/20 12:14:59;;;;;;;;;;;41.20;94.50;;;;;;5262557;28;20420;-73
2022/05/20 12:17:32;;;;;;;;;;;39.50;95.60;;;;;;5261286;28;19911;-73
2022/05/20 12:26:03;;;;;;;;;;;40.80;95.10;;;;;;5264316;28;19918;-73
2022/05/20 12:28:36;;;;;;;;;;;41.20;94.40;;;;;;5269221;28;19918;-73
2022/05/20 12:31:18;;;;;;;;;;;41.50;94.20;;;;;;5262204;28;19917;-73
2022/05/20 12:33:49;;;;;;;;;;;41.10;93.90;;;;;;5279015;28;19900;-73
2022/05/20 12:36:31;;;;;;;;;;;41.40;94.30;;;;;;5274322;28;19974;-73
2022/05/20 12:39:12;;;;;;;;;;;42.50;93.50;;;;;;5280079;28;19916;-74
2022/05/20 12:41:52;;;;;;;;;;;42.50;93.40;;;;;;5262711;28;20013;-73
2022/05/20 12:44:23;;;;;;;;;;;43.50;92.30;;;;;;5276654;28;20116;-73
2022/05/20 12:46:57;;;;;;;;;;;43.40;92.50;;;;;;5279475;28;19907;-74
2022/05/20 12:49:34;;;;;;;;;;;42.00;92.40;;;;;;5245659;28;19900;-74
2022/05/20 12:52:09;;;;;;;;;;;40.50;93.60;;;;;;5284781;28;19908;-74
2022/05/20 12:54:44;;;;;;;;;;;39.50;93.80;;;;;;5283601;28;19904;-73
2022/05/20 12:57:21;;;;;;;;;;;38.20;94.70;;;;;;5283878;28;20197;-73
2022/05/20 13:00:13;;;;;;;;;;;38.90;94.70;;;;;;5283316;28;19918;-73
2022/05/20 13:02:53;;;;;;;;;;;40.00;93.70;;;;;;5249340;28;19900;-73
2022/05/20 13:05:36;;;;;;;;;;;40.30;93.70;;;;;;5254120;28;19912;-72
2022/05/20 13:08:09;;;;;;;;;;;40.30;93.60;;;;;;5266754;28;20730;-72
2022/05/20 13:10:43;;;;;;;;;;;40.90;93.60;;;;;;5267482;28;19925;-72
2022/05/20 13:13:16;;;;;;;;;;;41.20;93.20;;;;;;5284213;28;19904;-73
2022/05/20 13:15:54;;;;;;;;;;;40.80;93.20;;;;;;5283422;28;19900;-72
2022/05/20 13:18:38;;;;;;;;;;;39.90;93.70;;;;;;5273821;28;19911;-74
2022/05/20 13:21:15;;;;;;;;;;;38.90;94.90;;;;;;5262516;28;20235;-73
2022/05/20 13:23:48;;;;;;;;;;;37.80;95.30;;;;;;5280007;28;19918;-73
2022/05/20 13:26:23;;;;;;;;;;;37.40;95.60;;;;;;5283201;28;19904;-72
2022/05/20 13:29:17;;;;;;;;;;;38.70;95.30;;;;;;5282084;28;19914;-72
2022/05/20 13:31:48;;;;;;;;;;;39.10;94.60;;;;;;5263471;28;19908;-72
2022/05/20 13:34:19;;;;;;;;;;;37.70;95.10;;;;;;5276677;28;20377;-74
2022/05/20 13:36:53;;;;;;;;;;;37.30;95.30;;;;;;5293387;27;20296;-74
2022/05/20 13:39:29;;;;;;;;;;;36.10;96.60;;;;;;5282753;28;19912;-74
2022/05/20 13:42:06;;;;;;;;;;;35.10;96.90;;;;;;5282177;28;19917;-74
2022/05/20 13:44:39;;;;;;;;;;;35.70;96.80;;;;;;5268279;28;19930;-73
2022/05/20 13:50:05;;;;;;;;;;;38.60;95.20;;;;;;5282636;28;19899;-73
2022/05/20 13:52:36;;;;;;;;;;;38.00;95.40;;;;;;5257354;28;19939;-73
2022/05/20 13:55:12;;;;;;;;;;;39.70;94.30;;;;;;5277045;28;19908;-73
2022/05/20 13:57:48;;;;;;;;;;;40.20;93.90;;;;;;5280468;28;20006;-73
2022/05/20 14:00:19;;;;;;;;;;;37.90;94.90;;;;;;5274393;28;20087;-73
2022/05/20 14:02:52;;;;;;;;;;;36.80;95.90;;;;;;5274021;28;19900;-74
2022/05/20 14:05:30;;;;;;;;;;;35.50;96.90;;;;;;5254739;27;19956;-74
2022/05/20 14:08:10;;;;;;;;;;;35.30;97.30;;;;;;5271588;27;20210;-73
2022/05/20 14:10:42;;;;;;;;;;;34.50;97.50;;;;;;5258702;28;19908;-75
2022/05/20 14:13:23;;;;;;;;;;;33.80;98.00;;;;;;5277813;28;20286;-73
2022/05/20 14:15:58;;;;;;;;;;;33.20;98.60;;;;;;5274376;28;19908;-73
2022/05/20 14:18:36;;;;;;;;;;;33.00;99.00;;;;;;5273789;28;19918;-73
2022/05/20 14:21:16;;;;;;;;;;;33.40;98.80;;;;;;5271835;28;19914;-74
2022/05/20 14:23:49;;;;;;;;;;;33.30;98.90;;;;;;5258737;28;19914;-74
2022/05/20 14:26:20;;;;;;;;;;;34.80;98.00;;;;;;5270587;28;19904;-74
2022/05/20 14:28:51;;;;;;;;;;;36.10;97.00;;;;;;5280998;28;19918;-74
2022/05/20 14:31:31;;;;;;;;;;;37.00;96.60;;;;;;5273090;28;19946;-74
2022/05/20 14:34:09;;;;;;;;;;;37.40;96.00;;;;;;5272060;28;19912;-74
2022/05/20 14:36:43;;;;;;;;;;;37.40;95.70;;;;;;5271182;27;19922;-73
2022/05/20 14:39:19;;;;;;;;;;;37.70;95.30;;;;;;5274685;28;19911;-74
2022/05/20 14:41:59;;;;;;;;;;;38.30;94.90;;;;;;5272150;28;19908;-74
2022/05/20 14:44:34;;;;;;;;;;;39.60;94.10;;;;;;5272314;28;19910;-75
2022/05/20 14:47:20;;;;;;;;;;;40.10;93.50;;;;;;5264069;28;19900;-75
2022/05/20 14:50:00;;;;;;;;;;;39.50;93.90;;;;;;5267314;28;20064;-74
2022/05/20 14:52:42;;;;;;;;;;;39.70;94.10;;;;;;5271574;28;19915;-75
2022/05/20 14:55:24;;;;;;;;;;;39.30;94.20;;;;;;5269249;28;19911;-74
2022/05/20 14:58:15;;;;;;;;;;;39.30;93.50;;;;;;5256524;28;19912;-74
2022/05/20 15:00:51;;;;;;;;;;;39.80;93.30;;;;;;5269169;28;19923;-74
2022/05/20 15:03:23;;;;;;;;;;;39.10;93.90;;;;;;5269038;28;19914;-74
2022/05/20 15:05:54;;;;;;;;;;;38.70;94.50;;;;;;5240992;28;19908;-74
2022/05/20 15:08:30;;;;;;;;;;;39.10;93.80;;;;;;5272843;27;19912;-74
2022/05/20 15:11:08;;;;;;;;;;;39.10;93.70;;;;;;5279964;27;19908;-73
2022/05/20 15:13:42;;;;;;;;;;;38.60;93.80;;;;;;5275274;28;20551;-73
2022/05/20 15:16:16;;;;;;;;;;;37.70;94.60;;;;;;5264935;28;20356;-73
2022/05/20 15:18:47;;;;;;;;;;;36.90;95.40;;;;;;5282212;28;20368;-72
2022/05/20 15:21:26;;;;;;;;;;;36.40;95.90;;;;;;5265195;28;19911;-73
2022/05/20 15:23:57;;;;;;;;;;;35.90;95.90;;;;;;5273706;28;19911;-74
2022/05/20 15:26:32;;;;;;;;;;;36.20;96.20;;;;;;5274299;28;19902;-75
2022/05/20 15:29:03;;;;;;;;;;;36.20;95.60;;;;;;5274519;28;19906;-74
2022/05/20 15:37:18;;;;;;;;;;;35.30;96.80;;;;;;5272402;28;19907;-73
2022/05/20 15:39:51;;;;;;;;;;;35.00;96.90;;;;;;5273971;28;19912;-74